createdAt,value
2016-06-02T12:44:35.663Z,1003.52
2016-06-02T12:45:35.669Z,1003.43
2016-06-02T12:46:35.644Z,1003.47
2016-06-02T12:47:35.649Z,1003.43
2016-06-02T12:48:35.671Z,1003.42
2016-06-02T12:49:35.630Z,1003.43
2016-06-02T12:50:35.634Z,1003.42
2016-06-02T12:51:35.621Z,1003.39
2016-06-02T12:52:35.625Z,1003.37
2016-06-02T12:53:35.614Z,1003.38
2016-06-02T12:54:36.415Z,1003.37
2016-06-02T12:55:35.886Z,1003.39
2016-06-02T12:56:35.593Z,1003.35
2016-06-02T12:57:35.627Z,1003.37
2016-06-02T12:58:35.584Z,1003.38
2016-06-02T12:59:35.586Z,1003.39
2016-06-02T13:00:35.574Z,1003.4
2016-06-02T13:01:35.577Z,1003.38
2016-06-02T13:02:35.564Z,1003.38
2016-06-02T13:03:35.551Z,1003.43
2016-06-02T13:04:35.554Z,1003.4
2016-06-02T13:05:35.557Z,1003.48
2016-06-02T13:06:35.543Z,1003.49
2016-06-02T13:07:35.531Z,1003.51
2016-06-02T13:08:35.534Z,1003.51
2016-06-02T13:09:35.537Z,1003.48
2016-06-02T13:10:35.524Z,1003.49
2016-06-02T13:11:35.526Z,1003.48
2016-06-02T13:12:35.514Z,1003.48
2016-06-02T13:13:35.501Z,1003.44
2016-06-02T13:14:35.504Z,1003.43
2016-06-02T13:15:35.490Z,1003.41
2016-06-02T13:16:35.493Z,1003.4
2016-06-02T13:17:35.481Z,1003.36
2016-06-02T13:18:35.483Z,1003.29
2016-06-02T13:19:35.470Z,1003.25
2016-06-02T13:20:35.472Z,1003.25
2016-06-02T13:21:35.459Z,1003.21
2016-06-02T13:22:35.462Z,1003.22
2016-06-02T13:23:35.450Z,1003.2
2016-06-02T13:24:35.905Z,1003.22
2016-06-02T13:25:35.845Z,1003.22
2016-06-02T13:26:35.441Z,1003.24
2016-06-02T13:27:35.444Z,1003.24
2016-06-02T13:28:35.432Z,1003.23
2016-06-02T13:29:35.419Z,1003.19
2016-06-02T13:30:35.421Z,1003.2
2016-06-02T13:31:35.408Z,1003.23
2016-06-02T13:32:35.411Z,1003.23
2016-06-02T13:33:35.399Z,1003.22
2016-06-02T13:34:35.401Z,1003.25
2016-06-02T13:35:35.388Z,1003.25
2016-06-02T13:36:35.375Z,1003.23
2016-06-02T13:37:35.377Z,1003.26
2016-06-02T13:38:35.365Z,1003.28
2016-06-02T13:39:35.382Z,1003.31
2016-06-02T13:40:35.355Z,1003.31
2016-06-02T13:41:35.357Z,1003.32
2016-06-02T13:42:35.345Z,1003.35
2016-06-02T13:43:35.348Z,1003.38
2016-06-02T13:44:35.334Z,1003.54
2016-06-02T13:45:35.320Z,1003.54
2016-06-02T13:46:35.324Z,1003.55
2016-06-02T13:47:35.326Z,1003.5
2016-06-02T13:48:35.314Z,1003.58
2016-06-02T13:49:35.300Z,1003.69
2016-06-02T13:50:35.303Z,1003.6
2016-06-02T13:51:35.290Z,1003.68
2016-06-02T13:52:35.293Z,1003.74
2016-06-02T13:53:35.280Z,1003.79
2016-06-02T13:54:35.267Z,1003.86
2016-06-02T13:55:35.255Z,1003.89
2016-06-02T13:56:35.257Z,1003.9
2016-06-02T13:57:35.244Z,1003.94
2016-06-02T13:58:35.247Z,1003.91
2016-06-02T13:59:35.233Z,1003.99
2016-06-02T14:00:35.221Z,1004.01
2016-06-02T14:01:35.208Z,1003.96
2016-06-02T14:02:35.210Z,1003.97
2016-06-02T14:03:35.197Z,1004.02
2016-06-02T14:04:35.185Z,1003.87
2016-06-02T14:05:35.172Z,1003.85
2016-06-02T14:06:35.174Z,1003.79
2016-06-02T14:07:35.162Z,1003.79
2016-06-02T14:08:35.149Z,1003.92
2016-06-02T14:09:35.135Z,1003.93
2016-06-02T14:10:35.138Z,1003.87
2016-06-02T14:11:35.126Z,1003.8
2016-06-02T14:12:35.112Z,1003.75
2016-06-02T14:13:35.115Z,1003.64
2016-06-02T14:14:35.102Z,1003.6
2016-06-02T14:15:35.090Z,1003.57
2016-06-02T14:16:35.076Z,1003.62
2016-06-02T14:17:35.079Z,1003.61
2016-06-02T14:18:35.051Z,1003.6
2016-06-02T14:19:35.053Z,1003.68
2016-06-02T14:20:35.040Z,1003.77
2016-06-02T14:21:35.043Z,1003.84
2016-06-02T14:22:35.014Z,1003.87
2016-06-02T14:23:35.001Z,1003.91
2016-06-02T14:24:35.238Z,1003.94
2016-06-02T14:25:35.225Z,1004.03
2016-06-02T14:26:35.978Z,1004.08
2016-06-02T14:27:34.965Z,1004.14
2016-06-02T14:28:34.953Z,1004.17
2016-06-02T14:29:34.955Z,1004.22
2016-06-02T14:30:34.942Z,1004.27
2016-06-02T14:31:37.523Z,1004.26
2016-06-02T14:32:34.916Z,1004.36
2016-06-02T14:33:34.902Z,1004.36
2016-06-02T14:34:34.905Z,1004.43
2016-06-02T14:35:34.894Z,1004.42
2016-06-02T14:36:34.943Z,1004.4
2016-06-02T14:37:34.868Z,1004.4
2016-06-02T14:38:34.855Z,1004.4
2016-06-02T14:39:34.841Z,1004.36
2016-06-02T14:40:34.843Z,1004.38
2016-06-02T14:41:36.222Z,1004.33
2016-06-02T14:42:34.818Z,1004.35
2016-06-02T14:43:34.805Z,1004.34
2016-06-02T14:44:34.793Z,1004.31
2016-06-02T14:45:34.796Z,1004.27
2016-06-02T14:46:34.781Z,1004.24
2016-06-02T14:47:34.769Z,1004.19
2016-06-02T14:48:34.772Z,1004.16
2016-06-02T14:49:34.743Z,1004.19
2016-06-02T14:50:34.746Z,1004.14
2016-06-02T14:51:34.733Z,1004.13
2016-06-02T14:52:34.720Z,1004.06
2016-06-02T14:53:34.706Z,1003.99
2016-06-02T14:54:34.709Z,1003.97
2016-06-02T14:55:34.697Z,1003.92
2016-06-02T14:56:34.700Z,1003.95
2016-06-02T14:57:34.672Z,1003.93
2016-06-02T14:58:34.720Z,1003.93
2016-06-02T14:59:34.660Z,1003.9
2016-06-02T15:00:34.648Z,1003.86
2016-06-02T15:01:34.635Z,1003.82
2016-06-02T15:02:34.638Z,1003.81
2016-06-02T15:03:34.608Z,1003.81
2016-06-02T15:04:34.658Z,1003.8
2016-06-02T15:05:34.599Z,1003.8
2016-06-02T15:06:34.586Z,1003.79
2016-06-02T15:07:34.588Z,1003.81
2016-06-02T15:08:34.576Z,1003.78
2016-06-02T15:09:34.563Z,1003.8
2016-06-02T15:10:34.549Z,1003.78
2016-06-02T15:11:34.537Z,1003.76
2016-06-02T15:12:34.524Z,1003.77
2016-06-02T15:13:34.510Z,1003.78
2016-06-02T15:14:34.513Z,1003.79
2016-06-02T15:15:34.500Z,1003.83
2016-06-02T15:16:34.488Z,1003.84
2016-06-02T15:17:34.490Z,1003.82
2016-06-02T15:18:34.478Z,1003.81
2016-06-02T15:19:34.465Z,1003.8
2016-06-02T15:20:34.451Z,1003.79
2016-06-02T15:21:34.454Z,1003.81
2016-06-02T15:22:34.426Z,1003.82
2016-06-02T15:23:34.428Z,1003.85
2016-06-02T15:24:34.415Z,1003.86
2016-06-02T15:25:34.403Z,1003.83
2016-06-02T15:26:34.389Z,1003.81
2016-06-02T15:27:34.392Z,1003.81
2016-06-02T15:28:34.380Z,1003.85
2016-06-02T15:29:34.367Z,1003.85
2016-06-02T15:30:34.353Z,1003.86
2016-06-02T15:31:34.341Z,1003.9
2016-06-02T15:32:34.344Z,1003.86
2016-06-02T15:33:34.346Z,1003.85
2016-06-02T15:34:34.333Z,1003.86
2016-06-02T15:35:34.320Z,1003.83
2016-06-02T15:36:34.308Z,1003.79
2016-06-02T15:37:34.295Z,1003.74
2016-06-02T15:38:34.282Z,1003.72
2016-06-02T15:39:34.285Z,1003.73
2016-06-02T15:40:34.271Z,1003.74
2016-06-02T15:41:34.258Z,1003.76
2016-06-02T15:42:34.246Z,1003.81
2016-06-02T15:43:34.232Z,1003.78
2016-06-02T15:44:34.234Z,1003.8
2016-06-02T15:45:34.221Z,1003.8
2016-06-02T15:46:34.209Z,1003.76
2016-06-02T15:47:34.196Z,1003.77
2016-06-02T15:48:34.184Z,1003.79
2016-06-02T15:49:34.186Z,1003.8
2016-06-02T15:50:34.173Z,1003.79
2016-06-02T15:51:34.270Z,1003.85
2016-06-02T15:52:34.162Z,1003.83
2016-06-02T15:53:34.197Z,1003.86
2016-06-02T15:54:34.137Z,1003.83
2016-06-02T15:55:34.124Z,1003.81
2016-06-02T15:56:34.126Z,1003.81
2016-06-02T15:57:34.113Z,1003.78
2016-06-02T15:58:34.100Z,1003.8
2016-06-02T15:59:34.104Z,1003.84
2016-06-02T16:00:34.091Z,1003.87
2016-06-02T16:01:34.078Z,1003.87
2016-06-02T16:02:34.065Z,1003.89
2016-06-02T16:03:34.067Z,1003.89
2016-06-02T16:04:34.054Z,1003.85
2016-06-02T16:05:34.058Z,1003.86
2016-06-02T16:06:34.028Z,1003.8
2016-06-02T16:07:34.016Z,1003.84
2016-06-02T16:08:34.019Z,1003.84
2016-06-02T16:09:34.021Z,1003.82
2016-06-02T16:10:34.023Z,1003.84
2016-06-02T16:11:33.996Z,1003.83
2016-06-02T16:12:33.983Z,1003.79
2016-06-02T16:13:33.969Z,1003.76
2016-06-02T16:14:33.972Z,1003.76
2016-06-02T16:15:33.959Z,1003.71
2016-06-02T16:16:33.946Z,1003.68
2016-06-02T16:17:33.948Z,1003.67
2016-06-02T16:18:33.936Z,1003.66
2016-06-02T16:19:33.923Z,1003.67
2016-06-02T16:20:33.909Z,1003.68
2016-06-02T16:21:33.912Z,1003.68
2016-06-02T16:22:33.900Z,1003.67
2016-06-02T16:23:33.887Z,1003.67
2016-06-02T16:24:34.139Z,1003.67
2016-06-02T16:25:33.861Z,1003.7
2016-06-02T16:26:33.864Z,1003.7
2016-06-02T16:27:33.850Z,1003.71
2016-06-02T16:28:33.838Z,1003.73
2016-06-02T16:29:33.840Z,1003.77
2016-06-02T16:30:33.828Z,1003.74
2016-06-02T16:31:33.814Z,1003.77
2016-06-02T16:32:33.817Z,1003.83
2016-06-02T16:33:33.805Z,1003.84
2016-06-02T16:34:33.792Z,1003.85
2016-06-02T16:35:33.778Z,1003.84
2016-06-02T16:36:33.766Z,1003.86
2016-06-02T16:37:33.769Z,1003.89
2016-06-02T16:38:33.755Z,1003.91
2016-06-02T16:39:33.742Z,1003.92
2016-06-02T16:40:33.730Z,1003.95
2016-06-02T16:41:33.732Z,1003.95
2016-06-02T16:42:33.719Z,1003.94
2016-06-02T16:43:33.707Z,1004.01
2016-06-02T16:44:33.694Z,1003.98
2016-06-02T16:45:33.696Z,1003.98
2016-06-02T16:46:33.682Z,1003.96
2016-06-02T16:47:33.671Z,1004
2016-06-02T16:48:33.657Z,1003.99
2016-06-02T16:49:33.660Z,1003.99
2016-06-02T16:50:33.646Z,1003.99
2016-06-02T16:51:33.634Z,1003.98
2016-06-02T16:52:33.621Z,1003.95
2016-06-02T16:53:33.623Z,1003.99
2016-06-02T16:54:33.596Z,1003.98
2016-06-02T16:55:33.707Z,1003.98
2016-06-02T16:56:33.585Z,1004.04
2016-06-02T16:57:33.588Z,1004.05
2016-06-02T16:58:33.575Z,1004.04
2016-06-02T16:59:33.577Z,1004.06
2016-06-02T17:00:33.549Z,1004.05
2016-06-02T17:01:33.536Z,1004.08
2016-06-02T17:02:33.522Z,1004.07
2016-06-02T17:03:33.526Z,1004.09
2016-06-02T17:04:33.513Z,1004.07
2016-06-02T17:05:33.500Z,1004.11
2016-06-02T17:06:33.487Z,1004.14
2016-06-02T17:07:33.489Z,1004.12
2016-06-02T17:08:33.477Z,1004.13
2016-06-02T17:09:33.464Z,1004.14
2016-06-02T17:10:33.466Z,1004.15
2016-06-02T17:11:33.453Z,1004.14
2016-06-02T17:12:33.441Z,1004.13
2016-06-02T17:13:33.427Z,1004.15
2016-06-02T17:14:33.415Z,1004.15
2016-06-02T17:15:33.402Z,1004.12
2016-06-02T17:16:33.404Z,1004.13
2016-06-02T17:17:33.391Z,1004.13
2016-06-02T17:18:33.379Z,1004.15
2016-06-02T17:19:33.365Z,1004.14
2016-06-02T17:20:33.369Z,1004.18
2016-06-02T17:21:33.355Z,1004.14
2016-06-02T17:22:33.342Z,1004.14
2016-06-02T17:23:33.329Z,1004.13
2016-06-02T17:24:33.707Z,1004.1
2016-06-02T17:25:33.320Z,1004.07
2016-06-02T17:26:33.306Z,1004.11
2016-06-02T17:27:33.293Z,1004.09
2016-06-02T17:28:33.296Z,1004.07
2016-06-02T17:29:33.284Z,1004.12
2016-06-02T17:30:33.270Z,1004.11
2016-06-02T17:31:33.257Z,1004.11
2016-06-02T17:32:33.245Z,1004.12
2016-06-02T17:33:33.232Z,1004.13
2016-06-02T17:34:33.234Z,1004.09
2016-06-02T17:35:33.222Z,1004.12
2016-06-02T17:36:33.208Z,1004.13
2016-06-02T17:37:33.195Z,1004.15
2016-06-02T17:38:33.198Z,1004.14
2016-06-02T17:39:33.951Z,1004.21
2016-06-02T17:40:33.172Z,1004.23
2016-06-02T17:41:33.159Z,1004.25
2016-06-02T17:42:33.147Z,1004.28
2016-06-02T17:43:33.133Z,1004.28
2016-06-02T17:44:33.136Z,1004.3
2016-06-02T17:45:33.124Z,1004.34
2016-06-02T17:46:33.110Z,1004.34
2016-06-02T17:47:33.097Z,1004.36
2016-06-02T17:48:33.099Z,1004.38
2016-06-02T17:49:33.088Z,1004.4
2016-06-02T17:50:33.090Z,1004.38
2016-06-02T17:51:33.060Z,1004.34
2016-06-02T17:52:33.049Z,1004.36
2016-06-02T17:53:33.051Z,1004.33
2016-06-02T17:54:33.038Z,1004.35
2016-06-02T17:55:33.040Z,1004.35
2016-06-02T17:56:33.012Z,1004.31
2016-06-02T17:57:32.999Z,1004.32
2016-06-02T17:58:33.001Z,1004.31
2016-06-02T17:59:32.989Z,1004.33
2016-06-02T18:00:32.976Z,1004.33
2016-06-02T18:01:32.963Z,1004.33
2016-06-02T18:02:32.965Z,1004.28
2016-06-02T18:03:32.953Z,1004.29
2016-06-02T18:04:32.939Z,1004.29
2016-06-02T18:05:32.942Z,1004.29
2016-06-02T18:06:32.930Z,1004.3
2016-06-02T18:07:32.901Z,1004.28
2016-06-02T18:08:32.904Z,1004.3
2016-06-02T18:09:32.891Z,1004.3
2016-06-02T18:10:32.878Z,1004.3
2016-06-02T18:11:32.864Z,1004.34
2016-06-02T18:12:32.867Z,1004.33
2016-06-02T18:13:32.855Z,1004.32
2016-06-02T18:14:32.841Z,1004.33
2016-06-02T18:15:32.845Z,1004.36
2016-06-02T18:16:32.816Z,1004.34
2016-06-02T18:17:32.802Z,1004.33
2016-06-02T18:18:32.805Z,1004.37
2016-06-02T18:19:32.793Z,1004.38
2016-06-02T18:20:32.843Z,1004.34
2016-06-02T18:21:32.766Z,1004.39
2016-06-02T18:22:32.769Z,1004.38
2016-06-02T18:23:32.757Z,1004.48
2016-06-02T18:24:33.212Z,1004.46
2016-06-02T18:25:32.747Z,1004.49
2016-06-02T18:26:32.733Z,1004.47
2016-06-02T18:27:32.704Z,1004.46
2016-06-02T18:28:32.707Z,1004.42
2016-06-02T18:29:32.695Z,1004.39
2016-06-02T18:30:32.681Z,1004.42
2016-06-02T18:31:32.669Z,1004.4
2016-06-02T18:32:32.656Z,1004.38
2016-06-02T18:33:32.658Z,1004.37
2016-06-02T18:34:32.645Z,1004.38
2016-06-02T18:35:32.633Z,1004.34
2016-06-02T18:36:32.620Z,1004.34
2016-06-02T18:37:32.606Z,1004.3
2016-06-02T18:38:32.610Z,1004.31
2016-06-02T18:39:32.611Z,1004.35
2016-06-02T18:40:32.958Z,1004.32
2016-06-02T18:41:32.570Z,1004.33
2016-06-02T18:42:32.558Z,1004.35
2016-06-02T18:43:32.561Z,1004.32
2016-06-02T18:44:32.548Z,1004.28
2016-06-02T18:45:32.535Z,1004.26
2016-06-02T18:46:32.522Z,1004.26
2016-06-02T18:47:32.509Z,1004.26
2016-06-02T18:48:32.496Z,1004.28
2016-06-02T18:49:32.499Z,1004.3
2016-06-02T18:50:32.486Z,1004.32
2016-06-02T18:51:32.472Z,1004.34
2016-06-02T18:52:32.474Z,1004.38
2016-06-02T18:53:32.447Z,1004.36
2016-06-02T18:54:32.447Z,1004.4
2016-06-02T18:55:32.530Z,1004.39
2016-06-02T18:56:32.421Z,1004.4
2016-06-02T18:57:32.408Z,1004.4
2016-06-02T18:58:32.395Z,1004.36
2016-06-02T18:59:32.398Z,1004.34
2016-06-02T19:00:32.369Z,1004.33
2016-06-02T19:01:32.372Z,1004.34
2016-06-02T19:02:32.359Z,1004.34
2016-06-02T19:03:32.346Z,1004.31
2016-06-02T19:04:32.333Z,1004.32
2016-06-02T19:05:32.320Z,1004.3
2016-06-02T19:06:32.323Z,1004.3
2016-06-02T19:07:32.309Z,1004.33
2016-06-02T19:08:32.298Z,1004.29
2016-06-02T19:09:32.284Z,1004.32
2016-06-02T19:10:32.303Z,1004.31
2016-06-02T19:11:32.273Z,1004.34
2016-06-02T19:12:32.245Z,1004.35
2016-06-02T19:13:32.295Z,1004.33
2016-06-02T19:14:32.236Z,1004.38
2016-06-02T19:15:32.222Z,1004.41
2016-06-02T19:16:32.209Z,1004.41
2016-06-02T19:17:32.197Z,1004.37
2016-06-02T19:18:32.183Z,1004.41
2016-06-02T19:19:32.186Z,1004.47
2016-06-02T19:20:32.173Z,1004.49
2016-06-02T19:21:32.161Z,1004.46
2016-06-02T19:22:32.147Z,1004.44
2016-06-02T19:23:32.150Z,1004.44
2016-06-02T19:24:32.121Z,1004.47
2016-06-02T19:25:32.718Z,1004.44
2016-06-02T19:26:32.111Z,1004.46
2016-06-02T19:27:32.098Z,1004.52
2016-06-02T19:28:32.085Z,1004.55
2016-06-02T19:29:32.072Z,1004.54
2016-06-02T19:30:32.059Z,1004.55
2016-06-02T19:31:32.062Z,1004.53
2016-06-02T19:32:32.049Z,1004.54
2016-06-02T19:33:32.036Z,1004.54
2016-06-02T19:34:32.023Z,1004.52
2016-06-02T19:35:32.025Z,1004.57
2016-06-02T19:36:31.998Z,1004.54
2016-06-02T19:37:31.984Z,1004.52
2016-06-02T19:38:31.971Z,1004.54
2016-06-02T19:39:32.162Z,1004.56
2016-06-02T19:40:32.414Z,1004.56
2016-06-02T19:41:31.948Z,1004.58
2016-06-02T19:42:31.936Z,1004.59
2016-06-02T19:43:31.922Z,1004.53
2016-06-02T19:44:31.925Z,1004.58
2016-06-02T19:45:31.912Z,1004.56
2016-06-02T19:46:31.899Z,1004.55
2016-06-02T19:47:31.886Z,1004.53
2016-06-02T19:48:31.873Z,1004.52
2016-06-02T19:49:31.860Z,1004.55
2016-06-02T19:50:31.847Z,1004.57
2016-06-02T19:51:31.835Z,1004.54
2016-06-02T19:52:31.838Z,1004.53
2016-06-02T19:53:31.824Z,1004.54
2016-06-02T19:54:31.811Z,1004.6
2016-06-02T19:55:31.938Z,1004.6
2016-06-02T19:56:31.785Z,1004.62
2016-06-02T19:57:31.788Z,1004.61
2016-06-02T19:58:31.774Z,1004.59
2016-06-02T19:59:31.777Z,1004.57
2016-06-02T20:00:31.749Z,1004.58
2016-06-02T20:01:31.737Z,1004.6
2016-06-02T20:02:31.723Z,1004.6
2016-06-02T20:03:31.710Z,1004.62
2016-06-02T20:04:31.698Z,1004.64
2016-06-02T20:05:31.684Z,1004.64
2016-06-02T20:06:31.687Z,1004.63
2016-06-02T20:07:31.674Z,1004.65
2016-06-02T20:08:31.661Z,1004.66
2016-06-02T20:09:31.664Z,1004.65
2016-06-02T20:10:31.651Z,1004.63
2016-06-02T20:11:31.623Z,1004.66
2016-06-02T20:12:31.610Z,1004.66
2016-06-02T20:13:31.597Z,1004.67
2016-06-02T20:14:31.599Z,1004.65
2016-06-02T20:15:31.587Z,1004.66
2016-06-02T20:16:31.573Z,1004.63
2016-06-02T20:17:31.560Z,1004.64
2016-06-02T20:18:31.547Z,1004.62
2016-06-02T20:19:31.551Z,1004.63
2016-06-02T20:20:31.522Z,1004.62
2016-06-02T20:21:31.508Z,1004.63
2016-06-02T20:22:31.511Z,1004.67
2016-06-02T20:23:31.499Z,1004.65
2016-06-02T20:24:31.486Z,1004.66
2016-06-02T20:25:31.520Z,1004.66
2016-06-02T20:26:31.460Z,1004.62
2016-06-02T20:27:31.446Z,1004.64
2016-06-02T20:28:31.435Z,1004.61
2016-06-02T20:29:31.421Z,1004.63
2016-06-02T20:30:31.440Z,1004.6
2016-06-02T20:31:31.411Z,1004.61
2016-06-02T20:32:31.399Z,1004.58
2016-06-02T20:33:31.401Z,1004.6
2016-06-02T20:34:31.372Z,1004.59
2016-06-02T20:35:31.374Z,1004.6
2016-06-02T20:36:31.345Z,1004.57
2016-06-02T20:37:31.334Z,1004.58
2016-06-02T20:38:31.320Z,1004.54
2016-06-02T20:39:31.323Z,1004.55
2016-06-02T20:40:31.638Z,1004.52
2016-06-02T20:41:31.297Z,1004.54
2016-06-02T20:42:31.284Z,1004.56
2016-06-02T20:43:31.271Z,1004.6
2016-06-02T20:44:31.259Z,1004.59
2016-06-02T20:45:31.261Z,1004.63
2016-06-02T20:46:31.248Z,1004.59
2016-06-02T20:47:31.235Z,1004.59
2016-06-02T20:48:31.222Z,1004.63
2016-06-02T20:49:31.224Z,1004.63
2016-06-02T20:50:31.196Z,1004.62
2016-06-02T20:51:31.183Z,1004.65
2016-06-02T20:52:31.170Z,1004.72
2016-06-02T20:53:31.157Z,1004.72
2016-06-02T20:54:31.160Z,1004.7
2016-06-02T20:55:31.147Z,1004.68
2016-06-02T20:56:31.134Z,1004.64
2016-06-02T20:57:31.122Z,1004.64
2016-06-02T20:58:31.108Z,1004.65
2016-06-02T20:59:31.111Z,1004.63
2016-06-02T21:00:31.098Z,1004.65
2016-06-02T21:01:31.069Z,1004.64
2016-06-02T21:02:31.072Z,1004.67
2016-06-02T21:03:31.059Z,1004.68
2016-06-02T21:04:31.046Z,1004.67
2016-06-02T21:05:31.080Z,1004.71
2016-06-02T21:06:31.036Z,1004.69
2016-06-02T21:07:31.007Z,1004.71
2016-06-02T21:08:31.010Z,1004.68
2016-06-02T21:09:30.997Z,1004.67
2016-06-02T21:10:30.968Z,1004.71
2016-06-02T21:11:30.971Z,1004.77
2016-06-02T21:12:30.959Z,1004.77
2016-06-02T21:13:30.945Z,1004.81
2016-06-02T21:14:30.933Z,1004.85
2016-06-02T21:15:30.919Z,1004.8
2016-06-02T21:16:30.906Z,1004.82
2016-06-02T21:17:30.909Z,1004.82
2016-06-02T21:18:30.881Z,1004.81
2016-06-02T21:19:30.883Z,1004.8
2016-06-02T21:20:30.870Z,1004.77
2016-06-02T21:21:30.858Z,1004.81
2016-06-02T21:22:30.844Z,1004.8
2016-06-02T21:23:30.832Z,1004.81
2016-06-02T21:24:30.819Z,1004.81
2016-06-02T21:25:30.822Z,1004.8
2016-06-02T21:26:30.808Z,1004.8
2016-06-02T21:27:30.796Z,1004.76
2016-06-02T21:28:30.766Z,1004.76
2016-06-02T21:29:30.769Z,1004.73
2016-06-02T21:30:30.742Z,1004.71
2016-06-02T21:31:30.743Z,1004.72
2016-06-02T21:32:30.731Z,1004.75
2016-06-02T21:33:30.718Z,1004.77
2016-06-02T21:34:30.705Z,1004.81
2016-06-02T21:35:30.708Z,1004.8
2016-06-02T21:36:30.696Z,1004.85
2016-06-02T21:37:30.665Z,1004.79
2016-06-02T21:38:30.668Z,1004.81
2016-06-02T21:39:30.656Z,1004.81
2016-06-02T21:40:31.346Z,1004.81
2016-06-02T21:41:30.649Z,1004.81
2016-06-02T21:42:30.661Z,1004.8
2016-06-02T21:43:30.689Z,1004.81
2016-06-02T21:44:30.686Z,1004.81
2016-06-02T21:45:30.713Z,1004.78
2016-06-02T21:46:30.715Z,1004.78
2016-06-02T21:47:30.710Z,1004.8
2016-06-02T21:48:30.707Z,1004.75
2016-06-02T21:49:30.703Z,1004.73
2016-06-02T21:50:30.700Z,1004.7
2016-06-02T21:51:30.692Z,1004.71
2016-06-02T21:52:30.682Z,1004.71
2016-06-02T21:53:30.672Z,1004.71
2016-06-02T21:54:30.678Z,1004.72
2016-06-02T21:55:30.667Z,1004.73
2016-06-02T21:56:30.656Z,1004.74
2016-06-02T21:57:30.645Z,1004.76
2016-06-02T21:58:30.632Z,1004.75
2016-06-02T21:59:30.621Z,1004.78
2016-06-02T22:00:30.610Z,1004.79
2016-06-02T22:01:30.597Z,1004.78
2016-06-02T22:02:30.632Z,1004.81
2016-06-02T22:03:30.572Z,1004.84
2016-06-02T22:04:30.574Z,1004.83
2016-06-02T22:05:30.547Z,1004.87
2016-06-02T22:06:30.550Z,1004.87
2016-06-02T22:07:30.537Z,1004.89
2016-06-02T22:08:30.524Z,1004.88
2016-06-02T22:09:30.511Z,1004.92
2016-06-02T22:10:31.123Z,1004.89
2016-06-02T22:11:30.485Z,1004.88
2016-06-02T22:12:30.472Z,1004.86
2016-06-02T22:13:30.459Z,1004.87
2016-06-02T22:14:30.447Z,1004.86
2016-06-02T22:15:30.449Z,1004.86
2016-06-02T22:16:30.421Z,1004.82
2016-06-02T22:17:30.423Z,1004.81
2016-06-02T22:18:30.410Z,1004.84
2016-06-02T22:19:30.396Z,1004.83
2016-06-02T22:20:30.384Z,1004.84
2016-06-02T22:21:30.371Z,1004.81
2016-06-02T22:22:30.358Z,1004.83
2016-06-02T22:23:30.345Z,1004.81
2016-06-02T22:24:30.332Z,1004.81
2016-06-02T22:25:30.320Z,1004.78
2016-06-02T22:26:30.323Z,1004.79
2016-06-02T22:27:30.309Z,1004.79
2016-06-02T22:28:30.312Z,1004.81
2016-06-02T22:29:30.283Z,1004.81
2016-06-02T22:30:30.271Z,1004.79
2016-06-02T22:31:30.257Z,1004.84
2016-06-02T22:32:30.245Z,1004.84
2016-06-02T22:33:30.231Z,1004.86
2016-06-02T22:34:30.219Z,1004.81
2016-06-02T22:35:30.221Z,1004.81
2016-06-02T22:36:30.208Z,1004.8
2016-06-02T22:37:30.195Z,1004.81
2016-06-02T22:38:30.183Z,1004.81
2016-06-02T22:39:30.169Z,1004.84
2016-06-02T22:40:30.172Z,1004.84
2016-06-02T22:41:30.144Z,1004.85
2016-06-02T22:42:30.131Z,1004.86
2016-06-02T22:43:30.134Z,1004.9
2016-06-02T22:44:30.104Z,1004.86
2016-06-02T22:45:30.092Z,1004.96
2016-06-02T22:46:30.079Z,1004.91
2016-06-02T22:47:30.082Z,1004.88
2016-06-02T22:48:30.069Z,1004.89
2016-06-02T22:49:30.056Z,1004.9
2016-06-02T22:50:30.027Z,1004.87
2016-06-02T22:51:30.030Z,1004.88
2016-06-02T22:52:30.018Z,1004.85
2016-06-02T22:53:30.020Z,1004.88
2016-06-02T22:54:29.991Z,1004.82
2016-06-02T22:55:29.978Z,1004.86
2016-06-02T22:56:29.981Z,1004.84
2016-06-02T22:57:29.952Z,1004.88
2016-06-02T22:58:29.955Z,1004.86
2016-06-02T22:59:29.942Z,1004.86
2016-06-02T23:00:29.929Z,1004.84
2016-06-02T23:01:29.901Z,1004.88
2016-06-02T23:02:29.904Z,1004.86
2016-06-02T23:03:29.890Z,1004.86
2016-06-02T23:04:29.878Z,1004.83
2016-06-02T23:05:29.865Z,1004.84
2016-06-02T23:06:29.867Z,1004.82
2016-06-02T23:07:29.854Z,1004.78
2016-06-02T23:08:29.826Z,1004.81
2016-06-02T23:09:29.828Z,1004.76
2016-06-02T23:10:29.816Z,1004.76
2016-06-02T23:11:29.802Z,1004.76
2016-06-02T23:12:29.789Z,1004.74
2016-06-02T23:13:29.777Z,1004.76
2016-06-02T23:14:29.764Z,1004.74
2016-06-02T23:15:29.750Z,1004.72
2016-06-02T23:16:29.738Z,1004.71
2016-06-02T23:17:29.725Z,1004.71
2016-06-02T23:18:29.712Z,1004.68
2016-06-02T23:19:29.699Z,1004.73
2016-06-02T23:20:29.686Z,1004.73
2016-06-02T23:21:29.688Z,1004.7
2016-06-02T23:22:29.676Z,1004.7
2016-06-02T23:23:29.662Z,1004.72
2016-06-02T23:24:29.650Z,1004.7
2016-06-02T23:25:30.027Z,1004.73
2016-06-02T23:26:29.624Z,1004.7
2016-06-02T23:27:29.612Z,1004.69
2016-06-02T23:28:29.598Z,1004.67
2016-06-02T23:29:29.585Z,1004.71
2016-06-02T23:30:29.573Z,1004.72
2016-06-02T23:31:29.560Z,1004.68
2016-06-02T23:32:29.562Z,1004.68
2016-06-02T23:33:29.548Z,1004.7
2016-06-02T23:34:29.520Z,1004.7
2016-06-02T23:35:29.523Z,1004.72
2016-06-02T23:36:29.511Z,1004.7
2016-06-02T23:37:29.498Z,1004.74
2016-06-02T23:38:29.484Z,1004.7
2016-06-02T23:39:29.472Z,1004.7
2016-06-02T23:40:29.459Z,1004.69
2016-06-02T23:41:29.462Z,1004.69
2016-06-02T23:42:29.432Z,1004.65
2016-06-02T23:43:29.419Z,1004.7
2016-06-02T23:44:29.422Z,1004.68
2016-06-02T23:45:29.410Z,1004.7
2016-06-02T23:46:29.396Z,1004.7
2016-06-02T23:47:29.384Z,1004.7
2016-06-02T23:48:29.371Z,1004.69
2016-06-02T23:49:29.358Z,1004.75
2016-06-02T23:50:29.344Z,1004.74
2016-06-02T23:51:29.332Z,1004.72
2016-06-02T23:52:29.319Z,1004.75
2016-06-02T23:53:29.322Z,1004.73
2016-06-02T23:54:29.309Z,1004.73
2016-06-02T23:55:29.296Z,1004.73
2016-06-02T23:56:29.283Z,1004.76
2016-06-02T23:57:29.270Z,1004.72
2016-06-02T23:58:29.304Z,1004.73
2016-06-02T23:59:29.244Z,1004.72
